Terminal Aerodrome Forecast
Issued by NWS Goodland, KS

Home | Current Version | Previous Version | Text Only | Print | Product List | Glossary On
Versions: 1 2 3 4 5 6 7 8 9 10 11 12 13 14 15 16 17
000
FTUS43 KGLD 291100 RRA
TAFGLD
TAF
KGLD 291148Z 2912/3012 18007KT P6SM FEW250
     FM292100 14013KT P6SM VCTS SCT050CB BKN200
     FM300000 08011KT P6SM -TSRA BKN050CB
     FM300900 07005KT 6SM -SHRA BR FEW005 SCT030 OVC100=

USA.gov is the U.S. government's official web portal to all federal, state and local government web resources and services.